createdAt,value
2023-02-15T00:01:42.235Z,64.85
2023-02-15T00:04:10.560Z,64.35
2023-02-15T00:06:37.581Z,64.21
2023-02-15T00:09:04.952Z,65.14
2023-02-15T00:11:41.129Z,65.09
2023-02-15T00:14:17.232Z,64.52
2023-02-15T00:16:45.317Z,64.52
2023-02-15T00:19:14.202Z,64.17
2023-02-15T00:21:41.965Z,64.74
2023-02-15T00:24:11.628Z,64.57
2023-02-15T00:26:43.344Z,64.17
2023-02-15T00:29:11.966Z,64.56
2023-02-15T00:31:39.193Z,64.43
2023-02-15T00:34:19.191Z,64.74
2023-02-15T00:36:46.442Z,64.66
2023-02-15T00:39:16.571Z,64.38
2023-02-15T00:41:45.107Z,64.06
2023-02-15T00:44:12.893Z,64.09
2023-02-15T00:46:40.225Z,64.34
2023-02-15T00:49:10.222Z,64.84
2023-02-15T00:51:39.348Z,64.79
2023-02-15T00:54:07.041Z,64.46
2023-02-15T00:56:34.453Z,64.94
2023-02-15T00:59:01.514Z,64.54
2023-02-15T01:01:28.633Z,64.66
2023-02-15T01:03:55.832Z,64.66
2023-02-15T01:06:22.869Z,65.04
2023-02-15T01:08:50.013Z,65.02
2023-02-15T01:11:23.467Z,64.62
2023-02-15T01:13:56.898Z,64.48
2023-02-15T01:16:26.345Z,65.09
2023-02-15T01:18:56.550Z,64.94
2023-02-15T01:21:26.474Z,64.73
2023-02-15T01:23:53.860Z,65.07
2023-02-15T01:26:20.992Z,65.15
2023-02-15T01:28:48.403Z,64.92
2023-02-15T01:31:19.441Z,64.94
2023-02-15T01:33:48.295Z,64.74
2023-02-15T01:36:16.159Z,64.77
2023-02-15T01:38:43.149Z,65.25
2023-02-15T01:41:27.340Z,64.86
2023-02-15T01:43:57.917Z,65.39
2023-02-15T01:46:49.372Z,64.91
2023-02-15T01:49:20.737Z,64.81
2023-02-15T01:51:50.023Z,64.83
2023-02-15T01:54:27.444Z,64.82
2023-02-15T01:56:59.490Z,64.83
2023-02-15T01:59:27.186Z,65.11
2023-02-15T02:01:59.811Z,64.96
2023-02-15T02:04:41.021Z,64.55
2023-02-15T02:07:09.744Z,64.78
2023-02-15T02:09:38.876Z,64.60
2023-02-15T02:12:06.408Z,64.21
2023-02-15T02:14:33.787Z,64.03
2023-02-15T02:17:30.572Z,64.33
2023-02-15T02:20:34.016Z,63.87
2023-02-15T02:23:19.182Z,63.81
2023-02-15T02:26:12.488Z,63.28
2023-02-15T02:28:51.317Z,63.36
2023-02-15T02:31:27.388Z,63.24
2023-02-15T02:34:25.355Z,63.87
2023-02-15T02:37:11.326Z,63.14
2023-02-15T02:39:59.865Z,62.88
2023-02-15T02:42:51.336Z,62.87
2023-02-15T02:45:46.885Z,63.32
2023-02-15T02:48:19.470Z,63.52
2023-02-15T02:50:50.050Z,63.63
2023-02-15T02:53:17.818Z,62.99
2023-02-15T02:56:00.751Z,62.86
2023-02-15T02:58:27.864Z,62.62
2023-02-15T03:00:58.760Z,62.74
2023-02-15T03:03:34.235Z,62.78
2023-02-15T03:06:07.555Z,63.00
2023-02-15T03:08:39.471Z,62.45
2023-02-15T03:11:06.927Z,63.23
2023-02-15T03:13:35.190Z,62.90
2023-02-15T03:16:24.791Z,62.52
2023-02-15T03:19:14.251Z,62.46
2023-02-15T03:22:04.674Z,62.44
2023-02-15T03:24:39.660Z,62.56
2023-02-15T03:27:18.718Z,62.67
2023-02-15T03:29:50.103Z,62.79
2023-02-15T03:32:18.351Z,62.78
2023-02-15T03:34:46.013Z,62.91
2023-02-15T03:37:31.809Z,62.51
2023-02-15T03:40:26.592Z,62.16
2023-02-15T03:43:13.053Z,62.60
2023-02-15T03:45:55.827Z,62.70
2023-02-15T03:48:27.727Z,62.12
2023-02-15T03:51:20.481Z,62.88
2023-02-15T03:53:49.962Z,62.59
2023-02-15T03:56:16.991Z,62.87
2023-02-15T03:59:02.623Z,61.98
2023-02-15T04:02:04.473Z,62.34
2023-02-15T04:04:42.181Z,63.04
2023-02-15T04:07:10.155Z,62.59
2023-02-15T04:09:56.131Z,62.78
2023-02-15T04:12:23.588Z,62.59
2023-02-15T04:15:09.452Z,62.57
2023-02-15T04:17:38.758Z,62.66
2023-02-15T04:20:24.906Z,62.04
2023-02-15T04:23:10.669Z,61.89
2023-02-15T04:25:37.777Z,62.04
2023-02-15T04:28:04.894Z,62.70
2023-02-15T04:30:31.993Z,61.96
2023-02-15T04:32:58.989Z,62.03
2023-02-15T04:35:26.842Z,61.90
2023-02-15T04:37:53.934Z,61.68
2023-02-15T04:40:21.126Z,61.76
2023-02-15T04:42:51.017Z,62.39
2023-02-15T04:45:18.689Z,62.05
2023-02-15T04:47:46.176Z,62.21
2023-02-15T04:50:13.259Z,62.05
2023-02-15T04:52:40.402Z,61.83
2023-02-15T04:55:08.022Z,61.46
2023-02-15T04:57:35.062Z,61.38
2023-02-15T05:00:02.340Z,61.67
2023-02-15T05:02:32.025Z,61.45
2023-02-15T05:04:59.091Z,61.96
2023-02-15T05:07:26.121Z,61.63
2023-02-15T05:09:53.132Z,62.06
2023-02-15T05:12:20.130Z,61.33
2023-02-15T05:14:47.164Z,61.56
2023-02-15T05:17:14.166Z,60.98
2023-02-15T05:19:41.146Z,61.52
2023-02-15T05:22:08.203Z,61.17
2023-02-15T05:24:53.797Z,61.15
2023-02-15T05:27:39.521Z,60.92
2023-02-15T05:30:12.707Z,61.08
2023-02-15T05:32:40.621Z,60.92
2023-02-15T05:35:08.822Z,61.45
2023-02-15T05:37:35.873Z,61.56
2023-02-15T05:40:02.922Z,61.35
2023-02-15T05:42:31.192Z,61.21
2023-02-15T05:44:58.223Z,61.48
2023-02-15T05:47:25.282Z,60.72
2023-02-15T05:49:52.361Z,61.41
2023-02-15T05:52:19.537Z,60.78
2023-02-15T05:54:46.525Z,60.62
2023-02-15T05:57:13.567Z,60.82
2023-02-15T05:59:40.594Z,61.06
2023-02-15T06:02:07.840Z,60.34
2023-02-15T06:04:34.941Z,60.93
2023-02-15T06:07:01.961Z,60.86
2023-02-15T06:09:28.981Z,60.79
2023-02-15T06:11:58.342Z,60.39
2023-02-15T06:14:25.347Z,60.74
2023-02-15T06:16:52.503Z,60.58
2023-02-15T06:19:20.131Z,60.65
2023-02-15T06:21:47.170Z,59.80
2023-02-15T06:24:14.307Z,59.72
2023-02-15T06:26:41.332Z,59.76
2023-02-15T06:29:08.503Z,60.33
2023-02-15T06:31:35.618Z,60.02
2023-02-15T06:34:02.726Z,60.08
2023-02-15T06:36:30.989Z,59.68
2023-02-15T06:38:58.322Z,60.32
2023-02-15T06:41:25.527Z,59.70
2023-02-15T06:43:52.515Z,59.74
2023-02-15T06:46:19.681Z,59.80
2023-02-15T06:48:46.792Z,60.07
2023-02-15T06:51:13.956Z,59.23
2023-02-15T06:53:43.886Z,60.03
2023-02-15T06:56:12.348Z,59.68
2023-02-15T06:58:40.844Z,59.09
2023-02-15T07:01:09.390Z,59.43
2023-02-15T07:03:36.946Z,59.33
2023-02-15T07:06:07.281Z,59.67
2023-02-15T07:08:34.412Z,59.81
2023-02-15T07:11:20.939Z,59.67
2023-02-15T07:13:48.552Z,59.48
2023-02-15T07:16:15.832Z,59.97
2023-02-15T07:18:42.904Z,59.95
2023-02-15T07:21:10.041Z,59.57
2023-02-15T07:23:38.571Z,59.65
2023-02-15T07:26:07.020Z,59.62
2023-02-15T07:28:35.192Z,59.08
2023-02-15T07:31:04.201Z,59.77
2023-02-15T07:33:32.420Z,59.52
2023-02-15T07:36:03.324Z,59.53
2023-02-15T07:38:36.081Z,59.31
2023-02-15T07:41:06.236Z,58.63
2023-02-15T07:43:35.844Z,59.17
2023-02-15T07:46:11.054Z,59.09
2023-02-15T07:48:39.506Z,59.03
2023-02-15T07:51:09.890Z,59.09
2023-02-15T07:53:37.892Z,59.25
2023-02-15T07:56:13.917Z,58.98
2023-02-15T07:58:53.659Z,59.12
2023-02-15T08:01:23.772Z,58.83
2023-02-15T08:03:51.173Z,59.06
2023-02-15T08:06:18.277Z,58.29
2023-02-15T08:08:45.503Z,58.32
2023-02-15T08:11:37.614Z,58.14
2023-02-15T08:14:10.738Z,58.67
2023-02-15T08:16:43.596Z,58.03
2023-02-15T08:19:15.101Z,58.47
2023-02-15T08:21:44.572Z,58.02
2023-02-15T08:24:13.469Z,57.33
2023-02-15T08:26:42.310Z,57.73
2023-02-15T08:29:10.760Z,58.24
2023-02-15T08:31:38.780Z,57.65
2023-02-15T08:34:06.291Z,57.67
2023-02-15T08:36:33.691Z,58.20
2023-02-15T08:39:02.515Z,58.09
2023-02-15T08:41:31.896Z,58.28
2023-02-15T08:44:01.631Z,57.57
2023-02-15T08:46:31.091Z,57.99
2023-02-15T08:48:58.687Z,57.86
2023-02-15T08:51:34.478Z,57.25
2023-02-15T08:54:06.926Z,57.68
2023-02-15T08:56:40.180Z,57.36
2023-02-15T08:59:08.838Z,57.48
2023-02-15T09:01:36.237Z,57.58
2023-02-15T09:04:06.533Z,57.54
2023-02-15T09:06:33.743Z,57.43
2023-02-15T09:09:00.827Z,58.08
2023-02-15T09:11:30.747Z,57.50
2023-02-15T09:14:03.659Z,57.67
2023-02-15T09:16:33.510Z,57.58
2023-02-15T09:19:05.802Z,57.67
2023-02-15T09:21:37.694Z,57.44
2023-02-15T09:24:08.438Z,56.96
2023-02-15T09:26:38.575Z,57.58
2023-02-15T09:29:05.629Z,57.16
2023-02-15T09:31:38.444Z,57.38
2023-02-15T09:34:05.548Z,56.77
2023-02-15T09:36:38.282Z,57.18
2023-02-15T09:39:10.785Z,57.03
2023-02-15T09:41:46.336Z,57.31
2023-02-15T09:44:13.386Z,57.73
2023-02-15T09:47:02.039Z,57.29
2023-02-15T09:49:55.711Z,57.19
2023-02-15T09:52:37.927Z,57.34
2023-02-15T09:55:26.444Z,57.09
2023-02-15T09:58:06.463Z,57.51
2023-02-15T10:01:01.811Z,57.51
2023-02-15T10:03:53.716Z,57.35
2023-02-15T10:06:25.332Z,57.34
2023-02-15T10:09:12.178Z,57.80
2023-02-15T10:11:44.789Z,58.17
2023-02-15T10:14:20.555Z,57.41
2023-02-15T10:16:57.278Z,58.01
2023-02-15T10:20:06.684Z,57.70
2023-02-15T10:22:51.575Z,57.87
2023-02-15T10:25:27.883Z,57.84
2023-02-15T10:27:54.869Z,57.80
2023-02-15T10:30:43.215Z,57.31
2023-02-15T10:33:39.240Z,57.41
2023-02-15T10:36:22.685Z,56.90
2023-02-15T10:39:19.844Z,56.73
2023-02-15T10:42:28.264Z,56.14
2023-02-15T10:45:13.681Z,56.92
2023-02-15T10:47:55.865Z,56.87
2023-02-15T10:50:34.832Z,57.07
2023-02-15T10:53:07.689Z,57.24
2023-02-15T10:55:52.832Z,56.71
2023-02-15T10:58:48.779Z,56.96
2023-02-15T11:01:25.207Z,56.61
2023-02-15T11:04:40.761Z,57.15
2023-02-15T11:07:30.413Z,57.14
2023-02-15T11:10:34.181Z,56.42
2023-02-15T11:13:10.267Z,57.09
2023-02-15T11:15:56.415Z,56.96
2023-02-15T11:18:37.150Z,57.10
2023-02-15T11:21:12.880Z,56.81
2023-02-15T11:23:48.571Z,57.00
2023-02-15T11:26:47.945Z,56.92
2023-02-15T11:29:26.676Z,56.83
2023-02-15T11:31:57.962Z,56.89
2023-02-15T11:34:37.703Z,56.77
2023-02-15T11:37:14.224Z,56.93
2023-02-15T11:39:41.457Z,56.99
2023-02-15T11:42:15.529Z,57.80
2023-02-15T11:45:05.592Z,58.06
2023-02-15T11:47:32.552Z,57.63
2023-02-15T11:50:01.568Z,57.04
2023-02-15T11:52:30.164Z,57.27
2023-02-15T11:54:57.260Z,57.80
2023-02-15T11:57:41.567Z,57.55
2023-02-15T12:00:15.687Z,57.64
2023-02-15T12:02:50.316Z,57.48
2023-02-15T12:05:23.409Z,57.42
2023-02-15T12:08:05.106Z,56.94
2023-02-15T12:10:50.196Z,56.85
2023-02-15T12:13:20.421Z,57.69
2023-02-15T12:15:51.149Z,57.54
2023-02-15T12:18:40.643Z,57.50
2023-02-15T12:21:14.636Z,57.42
2023-02-15T12:23:49.850Z,57.56
2023-02-15T12:26:35.380Z,57.29
2023-02-15T12:29:13.982Z,56.98
2023-02-15T12:31:44.923Z,57.10
2023-02-15T12:34:27.740Z,57.08
2023-02-15T12:37:01.416Z,57.51
2023-02-15T12:39:33.402Z,57.49
2023-02-15T12:42:04.668Z,57.08
2023-02-15T12:44:35.673Z,57.21
2023-02-15T12:47:02.800Z,56.11
2023-02-15T12:49:35.070Z,55.71
2023-02-15T12:52:07.885Z,56.63
2023-02-15T12:54:42.018Z,55.77
2023-02-15T12:57:16.701Z,54.74
2023-02-15T13:00:00.516Z,54.86
2023-02-15T13:02:44.564Z,55.19
2023-02-15T13:05:30.241Z,54.87
2023-02-15T13:08:05.058Z,54.40
2023-02-15T13:10:40.775Z,55.34
2023-02-15T13:13:13.138Z,54.96
2023-02-15T13:15:42.192Z,54.61
2023-02-15T13:18:18.206Z,55.22
2023-02-15T13:20:46.353Z,55.05
2023-02-15T13:23:30.118Z,54.81
2023-02-15T13:26:00.722Z,55.35
2023-02-15T13:28:49.736Z,55.07
2023-02-15T13:31:20.599Z,55.09
2023-02-15T13:34:11.185Z,55.47
2023-02-15T13:36:59.017Z,55.61
2023-02-15T13:39:41.949Z,55.47
2023-02-15T13:42:31.869Z,54.70
2023-02-15T13:45:23.409Z,54.96
2023-02-15T13:48:11.647Z,55.15
2023-02-15T13:51:13.946Z,55.25
2023-02-15T13:53:43.838Z,55.35
2023-02-15T13:56:20.882Z,55.55
2023-02-15T13:58:53.732Z,56.02
2023-02-15T14:01:24.507Z,55.97
2023-02-15T14:04:10.265Z,56.00
2023-02-15T14:06:56.689Z,55.29
2023-02-15T14:09:42.268Z,55.79
2023-02-15T14:12:27.705Z,56.09
2023-02-15T14:15:07.851Z,55.85
2023-02-15T14:17:53.114Z,55.64
2023-02-15T14:20:27.098Z,56.04
2023-02-15T14:22:56.956Z,55.51
2023-02-15T14:25:30.130Z,55.65
2023-02-15T14:28:09.335Z,55.63
2023-02-15T14:30:39.259Z,55.53
2023-02-15T14:33:26.244Z,56.02
2023-02-15T14:35:53.327Z,55.95
2023-02-15T14:38:20.162Z,56.21
2023-02-15T14:41:02.504Z,55.71
2023-02-15T14:43:33.388Z,54.83
2023-02-15T14:46:05.048Z,55.48
2023-02-15T14:48:40.383Z,55.21
2023-02-15T14:51:07.172Z,54.74
2023-02-15T14:53:39.442Z,55.35
2023-02-15T14:56:14.769Z,55.52
2023-02-15T14:58:50.492Z,56.30
2023-02-15T15:01:17.496Z,55.82
2023-02-15T15:03:49.953Z,55.61
2023-02-15T15:06:28.028Z,55.84
2023-02-15T15:09:00.869Z,56.12
2023-02-15T15:11:43.156Z,55.72
2023-02-15T15:14:11.788Z,55.70
2023-02-15T15:16:38.653Z,56.50
2023-02-15T15:19:10.302Z,55.49
2023-02-15T15:21:49.563Z,56.16
2023-02-15T15:24:35.278Z,56.55
2023-02-15T15:27:20.503Z,56.65
2023-02-15T15:29:47.338Z,56.59
2023-02-15T15:32:18.030Z,56.77
2023-02-15T15:35:03.463Z,55.90
2023-02-15T15:37:48.989Z,56.51
2023-02-15T15:40:38.801Z,55.85
2023-02-15T15:43:05.647Z,56.08
2023-02-15T15:45:47.173Z,56.72
2023-02-15T15:48:23.163Z,56.53
2023-02-15T15:50:55.070Z,56.59
2023-02-15T15:53:23.556Z,55.96
2023-02-15T15:55:51.752Z,55.86
2023-02-15T15:58:20.239Z,56.07
2023-02-15T16:00:53.168Z,56.45
2023-02-15T16:03:25.532Z,55.98
2023-02-15T16:05:56.333Z,56.07
2023-02-15T16:08:41.168Z,56.64
2023-02-15T16:11:34.423Z,56.17
2023-02-15T16:14:01.282Z,56.87
2023-02-15T16:16:29.829Z,56.35
2023-02-15T16:19:00.803Z,56.38
2023-02-15T16:21:29.838Z,56.64
2023-02-15T16:24:08.142Z,57.41
2023-02-15T16:26:34.956Z,57.04
2023-02-15T16:29:02.633Z,57.56
2023-02-15T16:31:29.550Z,56.70
2023-02-15T16:33:56.627Z,57.30
2023-02-15T16:36:24.891Z,57.41
2023-02-15T16:38:51.693Z,56.52
2023-02-15T16:41:22.102Z,57.14
2023-02-15T16:43:50.048Z,57.27
2023-02-15T16:46:21.982Z,56.77
2023-02-15T16:48:52.935Z,56.56
2023-02-15T16:51:23.681Z,56.59
2023-02-15T16:53:50.929Z,56.86
2023-02-15T16:56:23.640Z,56.79
2023-02-15T16:58:51.695Z,56.82
2023-02-15T17:01:21.427Z,57.54
2023-02-15T17:03:49.881Z,57.52
2023-02-15T17:06:26.818Z,56.50
2023-02-15T17:08:54.262Z,57.20
2023-02-15T17:11:22.200Z,57.54
2023-02-15T17:14:07.798Z,56.90
2023-02-15T17:16:36.200Z,57.13
2023-02-15T17:19:03.663Z,57.54
2023-02-15T17:21:34.832Z,56.71
2023-02-15T17:24:05.204Z,56.58
2023-02-15T17:26:33.834Z,57.21
2023-02-15T17:29:23.501Z,57.22
2023-02-15T17:31:52.360Z,56.98
2023-02-15T17:34:38.100Z,57.65
2023-02-15T17:37:04.901Z,57.13
2023-02-15T17:39:33.479Z,57.20
2023-02-15T17:42:00.481Z,57.50
2023-02-15T17:44:27.375Z,57.95
2023-02-15T17:46:54.189Z,57.32
2023-02-15T17:49:25.577Z,57.23
2023-02-15T17:51:52.419Z,57.27
2023-02-15T17:54:37.758Z,57.26
2023-02-15T17:57:06.987Z,57.17
2023-02-15T17:59:33.781Z,57.68
2023-02-15T18:02:19.224Z,57.81
2023-02-15T18:05:04.913Z,57.21
2023-02-15T18:07:50.127Z,57.62
2023-02-15T18:10:36.785Z,57.90
2023-02-15T18:13:03.947Z,57.79
2023-02-15T18:15:31.032Z,57.40
2023-02-15T18:17:58.057Z,58.01
2023-02-15T18:20:28.359Z,57.83
2023-02-15T18:22:55.219Z,58.09
2023-02-15T18:25:24.392Z,57.38
2023-02-15T18:27:53.343Z,57.84
2023-02-15T18:30:23.493Z,57.46
2023-02-15T18:32:52.093Z,58.19
2023-02-15T18:35:20.785Z,58.09
2023-02-15T18:37:47.790Z,58.10
2023-02-15T18:40:15.700Z,58.21
2023-02-15T18:42:47.184Z,57.43
2023-02-15T18:45:19.105Z,57.54
2023-02-15T18:47:46.296Z,57.79
2023-02-15T18:50:13.744Z,57.66
2023-02-15T18:52:41.096Z,58.24
2023-02-15T18:55:35.560Z,57.66
2023-02-15T18:58:02.676Z,58.32
2023-02-15T19:00:32.541Z,57.44
2023-02-15T19:03:00.153Z,57.96
2023-02-15T19:05:30.318Z,57.86
2023-02-15T19:07:58.718Z,58.19
2023-02-15T19:10:26.859Z,57.83
2023-02-15T19:12:54.431Z,58.78
2023-02-15T19:15:30.863Z,58.68
2023-02-15T19:17:57.746Z,58.21
2023-02-15T19:20:26.582Z,58.10
2023-02-15T19:22:55.535Z,57.74
2023-02-15T19:25:24.038Z,57.91
2023-02-15T19:27:51.831Z,58.52
2023-02-15T19:30:29.961Z,58.29
2023-02-15T19:33:00.496Z,58.39
2023-02-15T19:35:29.716Z,57.62
2023-02-15T19:38:00.844Z,58.50
2023-02-15T19:40:31.816Z,58.66
2023-02-15T19:42:58.694Z,58.25
2023-02-15T19:45:29.846Z,57.83
2023-02-15T19:47:56.953Z,57.99
2023-02-15T19:50:28.372Z,57.91
2023-02-15T19:52:55.199Z,58.41
2023-02-15T19:55:24.542Z,58.36
2023-02-15T19:57:52.376Z,58.11
2023-02-15T20:00:22.604Z,58.72
2023-02-15T20:02:49.810Z,58.20
2023-02-15T20:05:16.714Z,58.22
2023-02-15T20:07:45.419Z,58.45
2023-02-15T20:10:19.693Z,58.60
2023-02-15T20:12:47.617Z,58.62
2023-02-15T20:15:20.404Z,59.22
2023-02-15T20:17:47.315Z,58.46
2023-02-15T20:20:14.674Z,59.72
2023-02-15T20:22:42.573Z,59.50
2023-02-15T20:25:11.232Z,58.91
2023-02-15T20:27:38.114Z,59.35
2023-02-15T20:30:07.367Z,59.18
2023-02-15T20:32:34.347Z,59.30
2023-02-15T20:35:01.406Z,60.06
2023-02-15T20:37:29.653Z,60.14
2023-02-15T20:39:56.484Z,60.06
2023-02-15T20:42:23.317Z,59.81
2023-02-15T20:44:50.098Z,59.49
2023-02-15T20:47:16.868Z,59.58
2023-02-15T20:49:43.718Z,60.05
2023-02-15T20:52:17.475Z,60.25
2023-02-15T20:54:44.339Z,60.36
2023-02-15T20:57:14.524Z,59.73
2023-02-15T20:59:41.832Z,60.30
2023-02-15T21:02:19.404Z,60.17
2023-02-15T21:04:46.685Z,59.41
2023-02-15T21:07:17.312Z,60.17
2023-02-15T21:09:44.592Z,60.71
2023-02-15T21:12:16.020Z,60.82
2023-02-15T21:14:43.361Z,61.00
2023-02-15T21:17:14.087Z,60.12
2023-02-15T21:19:41.580Z,60.25
2023-02-15T21:22:15.778Z,59.98
2023-02-15T21:24:46.303Z,60.79
2023-02-15T21:27:14.346Z,60.16
2023-02-15T21:29:41.147Z,61.49
2023-02-15T21:32:08.656Z,61.02
2023-02-15T21:34:35.640Z,61.33
2023-02-15T21:37:02.512Z,61.89
2023-02-15T21:39:31.068Z,63.03
2023-02-15T21:42:16.522Z,62.81
2023-02-15T21:45:01.908Z,64.22
2023-02-15T21:47:48.934Z,63.16
2023-02-15T21:50:36.040Z,63.60
2023-02-15T21:53:03.685Z,62.67
2023-02-15T21:55:31.487Z,62.99
2023-02-15T21:57:58.397Z,63.46
2023-02-15T22:00:25.881Z,64.16
2023-02-15T22:02:58.243Z,64.38
2023-02-15T22:05:29.792Z,63.12
2023-02-15T22:07:57.458Z,63.25
2023-02-15T22:10:29.015Z,64.82
2023-02-15T22:12:55.981Z,65.02
2023-02-15T22:15:24.471Z,64.04
2023-02-15T22:17:53.005Z,64.02
2023-02-15T22:20:21.729Z,64.08
2023-02-15T22:22:49.251Z,63.73
2023-02-15T22:25:17.182Z,63.30
2023-02-15T22:27:45.124Z,63.15
2023-02-15T22:30:32.389Z,62.63
2023-02-15T22:33:00.301Z,63.04
2023-02-15T22:35:36.960Z,62.75
2023-02-15T22:38:03.966Z,63.26
2023-02-15T22:40:32.890Z,63.58
2023-02-15T22:43:00.950Z,62.65
2023-02-15T22:45:30.828Z,62.74
2023-02-15T22:47:58.819Z,62.76
2023-02-15T22:50:30.041Z,62.71
2023-02-15T22:52:57.294Z,62.28
2023-02-15T22:55:25.321Z,63.41
2023-02-15T22:57:54.784Z,63.31
2023-02-15T23:00:26.657Z,65.40
2023-02-15T23:02:54.005Z,63.95
2023-02-15T23:05:26.226Z,64.98
2023-02-15T23:07:53.206Z,65.15
2023-02-15T23:10:24.071Z,64.76
2023-02-15T23:13:13.782Z,63.64
2023-02-15T23:15:41.099Z,63.75
2023-02-15T23:18:19.212Z,63.55
2023-02-15T23:20:47.104Z,63.77
2023-02-15T23:23:15.039Z,63.02
2023-02-15T23:25:42.411Z,64.74
2023-02-15T23:28:29.103Z,63.63
2023-02-15T23:30:56.763Z,64.84
2023-02-15T23:33:25.476Z,65.56
2023-02-15T23:35:52.300Z,64.27
2023-02-15T23:38:20.289Z,64.19
2023-02-15T23:41:13.470Z,65.06
2023-02-15T23:43:42.051Z,64.45
2023-02-15T23:46:09.336Z,64.04
2023-02-15T23:48:37.853Z,66.36
2023-02-15T23:51:05.973Z,65.00
2023-02-15T23:53:33.386Z,64.72
2023-02-15T23:56:00.313Z,63.50
2023-02-15T23:58:33.734Z,64.35
